CheckWX is a tool to help pilots better visualize weather data.  It is not intended as a substitute for an official pre-flight weather briefing.

11:20:50 UTC

KISP METAR
Long Island Mac Arthur Airport
New York, New York, USA
Current

25 mins ago

KISP 291056Z 07009KT 1 1/2SM BR OVC005 08/08 A3001 RMK AO2 SFC VIS 2 1/2 PRESRR SLP162 T00830083 $
Observed
Mar-29 @ 10:56 UTC
Wind
  • 070° at 9 KTS
Visibility
1 1/2 SM
Flight Rules
IFR
Conditions
Mist
Cloud Levels
  • Overcast at 500' AGL
Temperature
C / 46°F
Dewpoint
C / 46°F
Humidity
100%
Altimeter
30.01" Hg
Pressure
1016.22 hPa
Previous

1 hour ago

KISP 290956Z 07014G19KT 4SM BR OVC005 08/08 A2997 RMK AO2 RAB19E53 SLP150 P0000 T00780078 $
Observed
Mar-29 @ 09:56 UTC
Wind
  • 070° at 14 KTS
  • Gusting to 19 KTS
Visibility
4 SM
Flight Rules
IFR
Conditions
Mist
Cloud Levels
  • Overcast at 500' AGL
Temperature
C / 46°F
Dewpoint
C / 46°F
Humidity
100%
Altimeter
29.97" Hg
Pressure
1014.92 hPa
Current Rain
0.01"
Previous

2 hours ago

KISP 290856Z AUTO 06008G17KT 5SM BR OVC006 08/08 A2999 RMK AO2 RAE26 SLP156 P0002 60003 T00830078 58007 $
Observed
Mar-29 @ 08:56 UTC
Wind
  • 060° at 8 KTS
  • Gusting to 17 KTS
Visibility
5 SM
Flight Rules
IFR
Conditions
Mist
Cloud Levels
  • Overcast at 600' AGL
Temperature
C / 46°F
Dewpoint
C / 46°F
Humidity
100%
Altimeter
29.99" Hg
Pressure
1015.62 hPa
Current Rain
0.02"